Adelandia, Brazil
Current Conditions -  °F | °C
As of 4:00 PM on Thursday 30 Oct 2014 (Local Time) from SBGO Reporting Station
Scattered Clouds Scattered Clouds  
Wind Chill: 77°   Ceiling: Unl
Heat Index: 79°   Visibility: 6mi
Dew Point: 59°   Wind: 13mph
Humidity: 54%   Direction: 350°N
Pressure: 29.88"   Gusts: NA
Location:  16.42°S, 50.17°W
Report Text: SBGO 301800Z 35011KT 9999 SCT035 FEW040TCU 25/15 Q1012
Loading
Personal Weather Stations






























Interactive Weather Map
Tropical Storm Tracking
New forecast layout! Learn more

10-Day Weather Forecast

Advertisements
Track Severe Weather on mobile